Time;durP1;ratioP1;P1;durP2;ratioP2;P2;SDS_P1;SDS_P2;PMS_P1;PMS_P2;Temp;Humidity;BMP_temperature;BMP_pressure;BME280_temperature;BME280_humidity;BME280_pressure;Samples;Min_cycle;Max_cycle;Signal;HPM_P1;HPM_P2
2021/09/24 00:00:49;;;;;;;8.03;4.20;;;;;;;;;;5059833;28;20468;-77
2021/09/24 00:03:17;;;;;;;4.10;3.20;;;;;;;;;;5059778;28;20461;-80
2021/09/24 00:05:44;;;;;;;5.43;3.03;;;;;;;;;;5049794;28;20820;-80
2021/09/24 00:08:11;;;;;;;6.70;3.90;;;;;;;;;;5027844;28;20435;-80
2021/09/24 00:10:39;;;;;;;3.93;3.17;;;;;;;;;;5030151;28;20508;-80
2021/09/24 00:13:06;;;;;;;3.93;3.40;;;;;;;;;;5031679;28;20835;-78
2021/09/24 00:15:33;;;;;;;5.60;3.53;;;;;;;;;;5031746;28;20406;-78
2021/09/24 00:18:00;;;;;;;5.23;3.57;;;;;;;;;;5032165;28;20423;-78
2021/09/24 00:20:29;;;;;;;6.13;3.30;;;;;;;;;;5046023;28;20457;-78
2021/09/24 00:22:56;;;;;;;4.60;3.23;;;;;;;;;;5053982;28;20483;-77
2021/09/24 00:25:23;;;;;;;5.43;3.13;;;;;;;;;;5053713;28;20422;-78
2021/09/24 00:27:51;;;;;;;4.37;3.93;;;;;;;;;;5045541;28;20409;-79
2021/09/24 00:30:18;;;;;;;7.33;3.93;;;;;;;;;;5027558;28;20521;-78
2021/09/24 00:32:45;;;;;;;5.23;3.77;;;;;;;;;;5029827;28;20444;-80
2021/09/24 00:35:13;;;;;;;6.57;3.97;;;;;;;;;;5031435;28;20744;-79
2021/09/24 00:37:41;;;;;;;7.90;4.43;;;;;;;;;;5034895;28;20418;-80
2021/09/24 00:40:09;;;;;;;4.07;3.63;;;;;;;;;;5032747;28;20473;-80
2021/09/24 00:42:37;;;;;;;5.30;3.83;;;;;;;;;;5046637;28;20465;-81
2021/09/24 00:45:05;;;;;;;6.57;4.03;;;;;;;;;;5053685;28;20818;-78
2021/09/24 00:47:33;;;;;;;4.73;3.40;;;;;;;;;;5053657;28;20460;-79
2021/09/24 00:50:00;;;;;;;6.63;3.70;;;;;;;;;;5044423;28;20458;-78
2021/09/24 00:52:28;;;;;;;5.10;3.70;;;;;;;;;;5027249;28;20452;-81
2021/09/24 00:54:57;;;;;;;4.93;4.03;;;;;;;;;;5029801;28;20454;-81
2021/09/24 00:57:24;;;;;;;5.23;3.50;;;;;;;;;;5010352;28;20423;-75
2021/09/24 00:59:52;;;;;;;3.47;3.13;;;;;;;;;;5027226;28;20438;-81
2021/09/24 01:02:19;;;;;;;3.70;3.27;;;;;;;;;;5013822;28;20957;-80
2021/09/24 01:04:46;;;;;;;7.77;3.47;;;;;;;;;;5047213;28;20431;-79
2021/09/24 01:07:14;;;;;;;5.43;4.30;;;;;;;;;;5053245;28;20416;-80
2021/09/24 01:09:41;;;;;;;4.43;3.33;;;;;;;;;;5035675;28;20903;-79
2021/09/24 01:12:10;;;;;;;6.10;4.57;;;;;;;;;;5043558;28;20445;-81
2021/09/24 01:14:38;;;;;;;10.70;4.23;;;;;;;;;;5026922;28;20413;-77
2021/09/24 01:17:05;;;;;;;4.33;3.93;;;;;;;;;;5029896;28;20453;-81
2021/09/24 01:19:32;;;;;;;4.30;3.37;;;;;;;;;;5036088;28;20441;-81
2021/09/24 01:22:01;;;;;;;4.70;4.30;;;;;;;;;;5050876;28;20448;-79
2021/09/24 01:24:29;;;;;;;7.00;3.67;;;;;;;;;;5051271;28;20442;-79
2021/09/24 01:26:57;;;;;;;6.37;4.00;;;;;;;;;;5036239;28;20936;-81
2021/09/24 01:29:25;;;;;;;5.43;3.80;;;;;;;;;;5012012;28;20469;-82
2021/09/24 01:31:52;;;;;;;10.90;4.70;;;;;;;;;;5037183;28;20446;-79
2021/09/24 01:34:20;;;;;;;8.00;4.30;;;;;;;;;;5038760;28;20426;-77
2021/09/24 01:36:47;;;;;;;9.33;5.20;;;;;;;;;;5040308;28;20422;-78
2021/09/24 01:39:16;;;;;;;4.73;4.17;;;;;;;;;;5051359;28;20459;-80
2021/09/24 01:41:44;;;;;;;7.53;4.70;;;;;;;;;;5054586;28;20454;-83
2021/09/24 01:44:11;;;;;;;9.20;4.60;;;;;;;;;;5035548;28;20499;-82
2021/09/24 01:46:39;;;;;;;7.47;3.90;;;;;;;;;;5054838;28;20843;-80
2021/09/24 01:49:07;;;;;;;4.80;4.00;;;;;;;;;;5019115;28;20849;-77
2021/09/24 01:51:35;;;;;;;5.10;4.00;;;;;;;;;;5036862;28;20502;-78
2021/09/24 01:54:02;;;;;;;7.07;4.00;;;;;;;;;;5036779;28;20441;-79
2021/09/24 01:56:30;;;;;;;6.33;4.13;;;;;;;;;;5038461;28;20430;-82
2021/09/24 01:58:57;;;;;;;7.20;3.97;;;;;;;;;;5040065;28;20416;-80
2021/09/24 02:01:25;;;;;;;7.50;4.53;;;;;;;;;;5035053;28;20434;-80
2021/09/24 02:03:52;;;;;;;6.90;4.47;;;;;;;;;;5034148;28;20979;-80
2021/09/24 02:06:19;;;;;;;4.43;4.00;;;;;;;;;;5032468;28;20873;-82
2021/09/24 02:08:46;;;;;;;7.13;4.43;;;;;;;;;;5041295;28;20415;-78
2021/09/24 02:11:14;;;;;;;9.37;4.73;;;;;;;;;;5040214;28;20430;-80
2021/09/24 02:13:43;;;;;;;9.10;4.60;;;;;;;;;;5039965;28;21939;-78
2021/09/24 02:16:11;;;;;;;6.47;4.70;;;;;;;;;;5014601;28;20420;-82
2021/09/24 02:18:39;;;;;;;6.63;4.30;;;;;;;;;;5033920;28;20419;-77
2021/09/24 02:21:06;;;;;;;7.90;4.60;;;;;;;;;;5052447;28;20467;-81
2021/09/24 02:23:34;;;;;;;5.80;4.90;;;;;;;;;;5053911;28;20468;-76
2021/09/24 02:26:01;;;;;;;6.97;4.10;;;;;;;;;;5018672;28;20762;-78
2021/09/24 02:28:28;;;;;;;10.63;4.30;;;;;;;;;;5035944;28;20808;-80
2021/09/24 02:30:56;;;;;;;5.90;5.17;;;;;;;;;;5035729;28;20472;-78
2021/09/24 02:33:24;;;;;;;9.37;5.57;;;;;;;;;;5044727;28;20400;-80
2021/09/24 02:35:51;;;;;;;7.10;4.83;;;;;;;;;;5048171;28;20417;-85
2021/09/24 02:38:18;;;;;;;6.30;4.07;;;;;;;;;;5052630;28;20413;-83
2021/09/24 02:40:45;;;;;;;6.20;3.97;;;;;;;;;;5053314;28;20445;-86
2021/09/24 02:43:12;;;;;;;6.50;5.07;;;;;;;;;;5053475;28;20984;-81
2021/09/24 02:45:40;;;;;;;5.90;4.73;;;;;;;;;;5053433;28;20422;-79
2021/09/24 02:48:08;;;;;;;6.10;4.67;;;;;;;;;;5055672;28;20422;-78
2021/09/24 02:50:35;;;;;;;7.10;4.70;;;;;;;;;;5055572;28;20432;-79
2021/09/24 02:53:03;;;;;;;5.30;3.97;;;;;;;;;;5055647;28;20448;-80
2021/09/24 02:55:30;;;;;;;5.37;4.87;;;;;;;;;;5050844;28;20435;-80
2021/09/24 02:57:57;;;;;;;8.97;6.70;;;;;;;;;;5048977;28;20417;-84
2021/09/24 03:00:26;;;;;;;6.53;5.90;;;;;;;;;;5052785;28;20482;-80
2021/09/24 03:02:53;;;;;;;8.07;6.43;;;;;;;;;;5052925;28;20538;-79
2021/09/24 03:05:21;;;;;;;9.10;6.60;;;;;;;;;;5053232;28;20796;-78
2021/09/24 03:07:49;;;;;;;7.80;6.50;;;;;;;;;;5052883;28;20902;-78
2021/09/24 03:10:16;;;;;;;11.30;6.83;;;;;;;;;;5054857;28;20439;-84
2021/09/24 03:12:43;;;;;;;11.30;7.20;;;;;;;;;;5055133;28;20415;-79
2021/09/24 03:15:12;;;;;;;12.70;7.83;;;;;;;;;;5055102;28;20420;-79
2021/09/24 03:17:40;;;;;;;11.10;8.80;;;;;;;;;;5050396;28;20424;-79
2021/09/24 03:20:08;;;;;;;9.93;7.17;;;;;;;;;;5048911;28;20445;-79
2021/09/24 03:22:37;;;;;;;9.90;7.33;;;;;;;;;;5051919;28;20414;-81
2021/09/24 03:25:04;;;;;;;9.40;6.77;;;;;;;;;;5032447;28;20438;-78
2021/09/24 03:27:31;;;;;;;10.20;8.30;;;;;;;;;;5052948;28;20407;-80
2021/09/24 03:29:58;;;;;;;11.63;8.60;;;;;;;;;;5052549;28;20816;-80
2021/09/24 03:32:26;;;;;;;13.20;9.80;;;;;;;;;;5054691;28;20949;-80
2021/09/24 03:34:53;;;;;;;12.13;9.47;;;;;;;;;;5054792;28;20416;-78
2021/09/24 03:37:20;;;;;;;14.83;10.07;;;;;;;;;;5054536;28;20423;-81
2021/09/24 03:39:48;;;;;;;12.83;10.00;;;;;;;;;;5049576;28;20441;-79
2021/09/24 03:42:16;;;;;;;12.37;10.10;;;;;;;;;;5048847;28;20429;-80
2021/09/24 03:44:43;;;;;;;14.70;9.73;;;;;;;;;;5051502;28;20481;-76
2021/09/24 03:47:10;;;;;;;10.67;9.53;;;;;;;;;;5052281;28;20447;-78
2021/09/24 03:49:37;;;;;;;21.60;13.00;;;;;;;;;;5052344;28;20435;-79
2021/09/24 03:52:05;;;;;;;16.03;11.00;;;;;;;;;;5051836;28;20449;-80
2021/09/24 03:54:32;;;;;;;14.43;10.70;;;;;;;;;;5054375;28;20419;-81
2021/09/24 03:57:01;;;;;;;13.93;10.70;;;;;;;;;;5054416;28;20415;-76
2021/09/24 03:59:28;;;;;;;16.70;11.13;;;;;;;;;;5054245;28;20795;-78
2021/09/24 04:01:55;;;;;;;16.00;11.90;;;;;;;;;;5049288;28;20442;-77
2021/09/24 04:04:25;;;;;;;16.17;12.13;;;;;;;;;;5048013;28;21878;-79
2021/09/24 04:06:52;;;;;;;19.70;12.40;;;;;;;;;;5051155;28;20455;-80
2021/09/24 04:09:19;;;;;;;15.43;13.10;;;;;;;;;;5051712;28;20443;-79
2021/09/24 04:11:46;;;;;;;15.60;11.80;;;;;;;;;;5052046;28;20422;-79
2021/09/24 04:14:15;;;;;;;13.37;11.40;;;;;;;;;;5051850;28;20549;-81
2021/09/24 04:16:42;;;;;;;17.83;12.30;;;;;;;;;;5053884;28;20425;-81
2021/09/24 04:19:09;;;;;;;12.90;10.80;;;;;;;;;;5051137;28;20451;-80
2021/09/24 04:21:36;;;;;;;15.43;11.60;;;;;;;;;;5034045;28;20437;-79
2021/09/24 04:24:04;;;;;;;13.83;11.37;;;;;;;;;;5028752;28;20475;-80
2021/09/24 04:26:31;;;;;;;14.87;13.03;;;;;;;;;;5028328;28;20409;-80
2021/09/24 04:29:00;;;;;;;14.83;13.20;;;;;;;;;;5031014;28;20421;-79
2021/09/24 04:31:28;;;;;;;16.37;13.00;;;;;;;;;;5031422;28;20992;-81
2021/09/24 04:33:56;;;;;;;14.47;12.33;;;;;;;;;;5011203;28;20831;-79
2021/09/24 04:36:23;;;;;;;13.60;10.80;;;;;;;;;;5031964;28;20428;-80
2021/09/24 04:38:50;;;;;;;12.77;11.33;;;;;;;;;;5033679;28;20447;-79
2021/09/24 04:41:17;;;;;;;15.40;12.63;;;;;;;;;;5034034;28;20427;-78
2021/09/24 04:43:44;;;;;;;14.50;10.97;;;;;;;;;;5033661;28;20463;-78
2021/09/24 04:46:11;;;;;;;12.50;11.20;;;;;;;;;;5032163;28;20434;-79
2021/09/24 04:48:40;;;;;;;16.23;12.87;;;;;;;;;;5028764;28;20443;-79
2021/09/24 04:51:07;;;;;;;13.40;12.00;;;;;;;;;;5030973;28;20440;-79
2021/09/24 04:53:34;;;;;;;12.63;11.37;;;;;;;;;;5031331;28;20529;-80
2021/09/24 04:56:01;;;;;;;15.53;12.80;;;;;;;;;;5032014;28;20435;-80
2021/09/24 04:58:28;;;;;;;13.97;12.67;;;;;;;;;;5031521;28;20489;-78
2021/09/24 05:00:56;;;;;;;14.40;12.87;;;;;;;;;;5033310;28;20823;-79
2021/09/24 05:03:23;;;;;;;16.00;11.70;;;;;;;;;;5036403;28;20453;-79
2021/09/24 05:05:51;;;;;;;12.50;11.20;;;;;;;;;;5037685;28;20416;-82
2021/09/24 05:08:18;;;;;;;13.20;11.90;;;;;;;;;;5031971;28;20401;-80
2021/09/24 05:10:46;;;;;;;13.53;12.23;;;;;;;;;;5032287;28;20440;-79
2021/09/24 05:13:13;;;;;;;13.70;11.20;;;;;;;;;;5034676;28;20903;-80
2021/09/24 05:15:40;;;;;;;13.60;12.40;;;;;;;;;;5035281;28;20424;-81
2021/09/24 05:18:07;;;;;;;15.13;11.87;;;;;;;;;;5035420;28;20442;-79
2021/09/24 05:20:34;;;;;;;13.37;12.07;;;;;;;;;;5044198;28;20507;-77
2021/09/24 05:23:03;;;;;;;13.43;12.03;;;;;;;;;;5037159;28;20468;-80
2021/09/24 05:25:30;;;;;;;15.57;12.40;;;;;;;;;;5037146;28;20431;-79
2021/09/24 05:27:57;;;;;;;14.63;13.10;;;;;;;;;;5037047;28;20790;-80
2021/09/24 05:30:24;;;;;;;15.53;14.03;;;;;;;;;;5040753;28;20482;-78
2021/09/24 05:32:53;;;;;;;14.03;12.60;;;;;;;;;;5044140;28;20787;-80
2021/09/24 05:35:20;;;;;;;15.23;13.57;;;;;;;;;;5054465;28;20427;-77
2021/09/24 05:37:47;;;;;;;17.27;13.20;;;;;;;;;;5054701;28;20429;-79
2021/09/24 05:40:16;;;;;;;18.00;16.10;;;;;;;;;;5054571;28;20433;-79
2021/09/24 05:42:44;;;;;;;21.50;15.40;;;;;;;;;;5028107;28;20516;-81
2021/09/24 05:45:14;;;;;;;17.10;14.37;;;;;;;;;;5035537;28;20495;-79
2021/09/24 05:47:41;;;;;;;18.10;14.33;;;;;;;;;;5036958;28;20444;-80
2021/09/24 05:50:12;;;;;;;19.77;15.53;;;;;;;;;;5017573;28;20447;-78
2021/09/24 05:52:39;;;;;;;19.47;16.07;;;;;;;;;;5040384;28;20468;-78
2021/09/24 05:55:08;;;;;;;20.50;16.70;;;;;;;;;;5044234;28;20783;-77
2021/09/24 05:57:36;;;;;;;18.30;15.50;;;;;;;;;;5054755;28;20440;-81
2021/09/24 06:00:04;;;;;;;19.20;14.07;;;;;;;;;;5054344;28;20461;-80
2021/09/24 06:02:32;;;;;;;18.57;15.40;;;;;;;;;;5054637;28;20446;-80
2021/09/24 06:04:59;;;;;;;17.90;13.70;;;;;;;;;;5047115;28;20469;-78
2021/09/24 06:07:26;;;;;;;21.33;15.97;;;;;;;;;;5036248;28;20497;-79
2021/09/24 06:09:53;;;;;;;19.03;14.97;;;;;;;;;;5032807;28;20426;-76
2021/09/24 06:12:21;;;;;;;18.43;14.30;;;;;;;;;;5010755;28;20413;-81
2021/09/24 06:14:49;;;;;;;18.13;15.40;;;;;;;;;;5038592;28;20445;-81
2021/09/24 06:17:16;;;;;;;20.00;15.20;;;;;;;;;;5014897;28;20423;-82
2021/09/24 06:19:44;;;;;;;18.13;14.47;;;;;;;;;;5040748;28;20793;-80
2021/09/24 06:22:11;;;;;;;18.40;14.53;;;;;;;;;;5053971;28;20442;-77
2021/09/24 06:24:39;;;;;;;18.97;14.50;;;;;;;;;;5054334;28;20950;-77
2021/09/24 06:27:10;;;;;;;16.83;13.63;;;;;;;;;;5055800;28;20414;-79
2021/09/24 06:29:38;;;;;;;17.70;14.43;;;;;;;;;;5055259;28;20464;-81
2021/09/24 06:32:07;;;;;;;15.83;13.87;;;;;;;;;;5055469;28;20442;-76
2021/09/24 06:34:35;;;;;;;17.57;14.03;;;;;;;;;;5049588;28;20406;-78
2021/09/24 06:37:02;;;;;;;16.40;12.50;;;;;;;;;;5049971;28;20437;-77
2021/09/24 06:39:29;;;;;;;16.37;11.87;;;;;;;;;;5053097;28;20438;-76
2021/09/24 06:41:56;;;;;;;17.60;13.10;;;;;;;;;;5053389;28;20426;-75
2021/09/24 06:44:24;;;;;;;14.63;12.27;;;;;;;;;;5031411;28;20823;-79
2021/09/24 06:46:51;;;;;;;16.27;13.00;;;;;;;;;;5048793;28;20967;-79
2021/09/24 06:49:22;;;;;;;17.27;12.73;;;;;;;;;;5053633;28;20467;-80
2021/09/24 06:51:49;;;;;;;16.43;13.00;;;;;;;;;;5055314;28;20501;-77
2021/09/24 06:54:19;;;;;;;15.50;13.10;;;;;;;;;;5054502;28;20415;-82
2021/09/24 06:56:47;;;;;;;15.93;13.43;;;;;;;;;;5021687;28;20448;-78
2021/09/24 06:59:14;;;;;;;16.70;13.67;;;;;;;;;;5047950;28;20463;-76
2021/09/24 07:01:43;;;;;;;18.47;14.53;;;;;;;;;;5051696;28;20420;-74
2021/09/24 07:04:10;;;;;;;16.47;13.30;;;;;;;;;;5035099;28;20481;-79
2021/09/24 07:06:38;;;;;;;19.40;13.03;;;;;;;;;;5053086;28;20776;-77
2021/09/24 07:09:06;;;;;;;16.63;13.80;;;;;;;;;;5052588;28;20532;-79
2021/09/24 07:11:34;;;;;;;23.43;13.70;;;;;;;;;;5055302;28;20516;-76
2021/09/24 07:14:01;;;;;;;16.77;13.87;;;;;;;;;;5054911;28;20800;-78
2021/09/24 07:16:28;;;;;;;15.20;12.80;;;;;;;;;;5052366;28;20432;-75
2021/09/24 07:18:55;;;;;;;11.77;10.57;;;;;;;;;;5049121;28;20416;-81
2021/09/24 07:21:22;;;;;;;15.27;11.27;;;;;;;;;;5049125;28;20406;-77
2021/09/24 07:23:51;;;;;;;11.03;9.83;;;;;;;;;;5051808;28;20411;-80
2021/09/24 07:26:18;;;;;;;11.43;9.23;;;;;;;;;;5051611;28;20454;-76
2021/09/24 07:28:45;;;;;;;11.20;9.50;;;;;;;;;;5052649;28;20444;-77
2021/09/24 07:31:13;;;;;;;10.20;7.80;;;;;;;;;;5053234;28;20447;-77
2021/09/24 07:33:40;;;;;;;13.20;9.13;;;;;;;;;;5054630;28;20864;-77
2021/09/24 07:36:07;;;;;;;11.77;10.50;;;;;;;;;;5054346;28;20444;-77
2021/09/24 07:38:34;;;;;;;13.23;8.80;;;;;;;;;;5054555;28;20913;-82
2021/09/24 07:41:03;;;;;;;9.67;8.67;;;;;;;;;;5048461;28;20445;-81
2021/09/24 07:43:30;;;;;;;8.87;7.80;;;;;;;;;;5049050;28;20432;-80
2021/09/24 07:45:57;;;;;;;8.97;7.60;;;;;;;;;;5051938;28;20535;-82
2021/09/24 07:48:24;;;;;;;8.97;7.17;;;;;;;;;;5052571;28;20443;-80
2021/09/24 07:50:51;;;;;;;7.77;6.13;;;;;;;;;;5052793;28;20488;-80
2021/09/24 07:53:19;;;;;;;7.83;7.03;;;;;;;;;;5052940;28;20461;-79
2021/09/24 07:55:46;;;;;;;7.33;6.43;;;;;;;;;;5054043;28;20948;-80
2021/09/24 07:58:14;;;;;;;8.60;6.37;;;;;;;;;;5053899;28;20461;-81
2021/09/24 08:00:42;;;;;;;7.10;6.40;;;;;;;;;;5053543;28;20461;-81
2021/09/24 08:03:09;;;;;;;8.00;6.00;;;;;;;;;;5048631;28;20437;-81
2021/09/24 08:05:36;;;;;;;9.73;6.70;;;;;;;;;;5048074;28;20484;-82
2021/09/24 08:08:04;;;;;;;8.40;7.50;;;;;;;;;;5051443;28;20453;-85
2021/09/24 08:10:31;;;;;;;10.90;6.97;;;;;;;;;;5052431;28;20454;-83
2021/09/24 08:12:58;;;;;;;10.20;6.53;;;;;;;;;;5043062;28;20448;-83
2021/09/24 08:15:28;;;;;;;8.90;7.00;;;;;;;;;;5051777;28;20473;-83
2021/09/24 08:17:55;;;;;;;6.47;5.80;;;;;;;;;;5053703;28;20470;-83
2021/09/24 08:20:22;;;;;;;11.33;7.73;;;;;;;;;;5040693;28;20473;-83
2021/09/24 08:22:50;;;;;;;7.40;6.53;;;;;;;;;;5033414;28;20445;-83
2021/09/24 08:25:19;;;;;;;6.90;6.20;;;;;;;;;;5029637;28;20482;-82
2021/09/24 08:27:47;;;;;;;7.50;6.70;;;;;;;;;;5027534;28;20438;-82
2021/09/24 08:30:15;;;;;;;6.97;6.27;;;;;;;;;;5011160;28;20832;-83
2021/09/24 08:32:45;;;;;;;8.77;6.23;;;;;;;;;;4994280;28;20447;-83
2021/09/24 08:35:18;;;;;;;9.80;7.20;;;;;;;;;;4994637;28;20445;-83
2021/09/24 08:37:50;;;;;;;9.17;7.07;;;;;;;;;;5016258;28;21053;-83
2021/09/24 08:40:17;;;;;;;11.93;7.80;;;;;;;;;;5033606;28;20553;-82
2021/09/24 08:42:45;;;;;;;9.27;8.37;;;;;;;;;;5027726;28;20802;-82
2021/09/24 08:45:13;;;;;;;9.97;9.07;;;;;;;;;;5008554;28;20457;-83
2021/09/24 08:47:41;;;;;;;10.07;8.67;;;;;;;;;;5028514;28;20434;-82
2021/09/24 08:50:10;;;;;;;10.30;9.27;;;;;;;;;;5030950;28;20450;-83
2021/09/24 08:52:39;;;;;;;9.50;8.60;;;;;;;;;;5010584;28;20449;-83
2021/09/24 08:55:07;;;;;;;10.37;9.27;;;;;;;;;;5034926;28;20457;-83
2021/09/24 08:57:34;;;;;;;8.70;7.83;;;;;;;;;;5032330;28;20447;-83
2021/09/24 09:00:01;;;;;;;12.73;9.37;;;;;;;;;;5033059;28;20458;-82
2021/09/24 09:02:29;;;;;;;10.17;9.20;;;;;;;;;;5032905;28;20442;-82
2021/09/24 09:04:57;;;;;;;12.43;9.20;;;;;;;;;;5032813;28;20986;-82
2021/09/24 09:07:27;;;;;;;11.33;10.17;;;;;;;;;;5027398;28;20792;-84
2021/09/24 09:09:54;;;;;;;12.30;10.90;;;;;;;;;;5028270;28;20830;-83
2021/09/24 09:12:23;;;;;;;12.60;11.37;;;;;;;;;;5030936;28;20452;-83
2021/09/24 09:14:59;;;;;;;13.57;12.27;;;;;;;;;;5030784;28;20461;-84
2021/09/24 09:17:26;;;;;;;14.00;12.60;;;;;;;;;;5031180;28;20452;-84
2021/09/24 09:20:07;;;;;;;15.90;13.80;;;;;;;;;;5036918;28;21059;-83
2021/09/24 09:22:36;;;;;;;12.50;11.23;;;;;;;;;;5026737;28;20434;-84
2021/09/24 09:25:03;;;;;;;14.20;11.77;;;;;;;;;;5028369;28;20478;-83
2021/09/24 09:27:31;;;;;;;11.30;10.20;;;;;;;;;;5030615;28;20434;-84
2021/09/24 09:29:58;;;;;;;12.13;11.03;;;;;;;;;;5030985;28;20465;-84
2021/09/24 09:32:26;;;;;;;12.40;11.30;;;;;;;;;;5031286;28;20469;-84
2021/09/24 09:34:53;;;;;;;13.43;11.17;;;;;;;;;;5046336;28;20496;-84
2021/09/24 09:37:21;;;;;;;12.83;11.30;;;;;;;;;;5068061;28;20467;-83
2021/09/24 09:40:02;;;;;;;12.93;11.70;;;;;;;;;;5067801;28;20556;-84
2021/09/24 09:42:33;;;;;;;12.33;11.13;;;;;;;;;;5044978;28;20935;-83
2021/09/24 09:45:00;;;;;;;11.03;9.87;;;;;;;;;;5028229;28;20531;-82
2021/09/24 09:47:29;;;;;;;12.03;10.30;;;;;;;;;;5011078;28;20442;-83
2021/09/24 09:50:04;;;;;;;14.10;10.73;;;;;;;;;;5033505;28;20472;-83
2021/09/24 09:52:33;;;;;;;11.03;9.93;;;;;;;;;;5034100;28;20443;-83
2021/09/24 09:55:02;;;;;;;11.10;10.00;;;;;;;;;;5034687;28;20468;-84
2021/09/24 09:57:30;;;;;;;11.30;10.10;;;;;;;;;;5054316;28;20460;-83
2021/09/24 09:59:57;;;;;;;9.90;9.00;;;;;;;;;;5056258;28;20461;-83
2021/09/24 10:02:29;;;;;;;9.40;8.50;;;;;;;;;;5038737;28;20468;-83
2021/09/24 10:04:57;;;;;;;9.80;8.80;;;;;;;;;;5044527;28;20481;-83
2021/09/24 10:07:25;;;;;;;9.87;8.87;;;;;;;;;;5029829;28;21785;-83
2021/09/24 10:10:05;;;;;;;9.20;8.30;;;;;;;;;;5015202;28;20461;-83
2021/09/24 10:12:33;;;;;;;8.50;7.27;;;;;;;;;;5033804;28;20440;-84
2021/09/24 10:15:00;;;;;;;9.50;8.40;;;;;;;;;;5033911;28;20504;-83
2021/09/24 10:17:27;;;;;;;10.73;9.30;;;;;;;;;;5034327;28;20454;-83
2021/09/24 10:19:55;;;;;;;9.00;7.97;;;;;;;;;;5055502;28;20479;-83
2021/09/24 10:22:24;;;;;;;8.43;6.60;;;;;;;;;;5055839;28;20441;-83
2021/09/24 10:24:52;;;;;;;10.17;7.57;;;;;;;;;;5038004;28;20494;-83
2021/09/24 10:27:23;;;;;;;7.47;6.50;;;;;;;;;;5041539;28;20453;-82
2021/09/24 10:29:51;;;;;;;7.03;6.33;;;;;;;;;;5028077;28;20962;-81
2021/09/24 10:32:19;;;;;;;8.20;7.40;;;;;;;;;;5006693;28;20446;-83
2021/09/24 10:34:55;;;;;;;7.80;5.80;;;;;;;;;;5032832;28;20442;-83
2021/09/24 10:37:24;;;;;;;7.60;4.83;;;;;;;;;;5033352;28;20438;-83
2021/09/24 10:39:57;;;;;;;7.10;5.40;;;;;;;;;;5018328;28;20457;-76
2021/09/24 10:42:28;;;;;;;8.00;5.50;;;;;;;;;;5046528;28;20557;-78
2021/09/24 10:45:10;;;;;;;6.63;5.47;;;;;;;;;;5028666;28;20441;-81
2021/09/24 10:47:46;;;;;;;6.40;5.73;;;;;;;;;;5023392;28;20453;-85
2021/09/24 10:50:28;;;;;;;7.90;5.47;;;;;;;;;;5032462;28;20489;-86
2021/09/24 10:53:10;;;;;;;6.10;4.93;;;;;;;;;;5017067;28;20438;-88
2021/09/24 10:55:37;;;;;;;5.23;4.70;;;;;;;;;;5020526;28;20457;-85
2021/09/24 10:58:05;;;;;;;5.67;4.93;;;;;;;;;;5054813;28;20810;-76
2021/09/24 11:00:33;;;;;;;5.57;4.33;;;;;;;;;;5053745;28;20461;-83
2021/09/24 11:03:09;;;;;;;7.97;4.50;;;;;;;;;;5055095;28;20441;-78
2021/09/24 11:05:51;;;;;;;5.07;4.03;;;;;;;;;;5035856;28;21017;-79
2021/09/24 11:08:33;;;;;;;6.73;5.50;;;;;;;;;;5004776;28;20446;-80
2021/09/24 11:11:04;;;;;;;5.03;4.53;;;;;;;;;;5032053;28;20532;-82
2021/09/24 11:13:33;;;;;;;8.57;5.50;;;;;;;;;;5034309;28;20438;-76
2021/09/24 11:16:00;;;;;;;6.13;5.10;;;;;;;;;;5013247;28;20449;-78
2021/09/24 11:18:42;;;;;;;6.07;4.60;;;;;;;;;;5043254;28;20456;-79
2021/09/24 11:21:10;;;;;;;5.63;4.20;;;;;;;;;;5039201;28;20993;-80
2021/09/24 11:23:37;;;;;;;6.90;4.10;;;;;;;;;;5054667;28;20441;-79
2021/09/24 11:26:08;;;;;;;6.43;4.40;;;;;;;;;;5035139;28;20824;-76
2021/09/24 11:28:37;;;;;;;6.67;4.60;;;;;;;;;;5028829;28;20430;-82
2021/09/24 11:31:04;;;;;;;6.20;4.20;;;;;;;;;;5029491;28;20462;-81
2021/09/24 11:33:40;;;;;;;6.53;4.67;;;;;;;;;;5032580;28;20441;-79
2021/09/24 11:36:07;;;;;;;8.50;5.07;;;;;;;;;;5014844;28;20446;-79
2021/09/24 11:38:42;;;;;;;5.50;4.30;;;;;;;;;;5032416;28;20536;-84
2021/09/24 11:41:16;;;;;;;7.30;4.87;;;;;;;;;;5047846;28;20515;-81
2021/09/24 11:43:45;;;;;;;5.57;4.73;;;;;;;;;;5054581;28;20428;-77
2021/09/24 11:46:14;;;;;;;8.17;6.77;;;;;;;;;;5054350;28;20488;-76
2021/09/24 11:48:41;;;;;;;6.73;5.50;;;;;;;;;;5029817;28;20430;-80
2021/09/24 11:51:11;;;;;;;6.57;4.37;;;;;;;;;;5027689;28;20452;-79
2021/09/24 11:53:47;;;;;;;5.90;4.90;;;;;;;;;;5030446;28;20452;-77
2021/09/24 11:56:17;;;;;;;6.20;4.57;;;;;;;;;;5031789;28;20446;-78
2021/09/24 11:58:46;;;;;;;5.30;4.43;;;;;;;;;;5032330;28;20453;-77
2021/09/24 12:01:13;;;;;;;5.63;4.00;;;;;;;;;;5032125;28;20447;-81
2021/09/24 12:03:40;;;;;;;4.83;4.33;;;;;;;;;;5050495;28;20805;-77
2021/09/24 12:06:10;;;;;;;7.17;4.37;;;;;;;;;;5054172;28;20481;-82
2021/09/24 12:08:40;;;;;;;4.90;3.73;;;;;;;;;;5036679;28;20540;-91
2021/09/24 12:11:10;;;;;;;4.67;4.27;;;;;;;;;;5042943;28;20454;-87
2021/09/24 12:13:39;;;;;;;5.17;3.97;;;;;;;;;;5027401;28;20430;-84
2021/09/24 12:16:09;;;;;;;5.20;4.17;;;;;;;;;;5030360;28;20450;-82
2021/09/24 12:18:51;;;;;;;4.90;4.50;;;;;;;;;;5031638;28;20438;-80
2021/09/24 12:21:19;;;;;;;4.47;3.90;;;;;;;;;;5014090;28;20442;-78
2021/09/24 12:23:46;;;;;;;5.13;4.03;;;;;;;;;;5032651;28;20442;-82
2021/09/24 12:26:14;;;;;;;7.33;4.63;;;;;;;;;;5053573;28;20476;-86
2021/09/24 12:28:55;;;;;;;4.70;4.13;;;;;;;;;;5053598;28;20449;-85
2021/09/24 12:31:34;;;;;;;5.53;4.30;;;;;;;;;;5053762;28;20440;-78
2021/09/24 12:34:01;;;;;;;4.90;4.30;;;;;;;;;;5011784;28;21714;-80
2021/09/24 12:36:28;;;;;;;5.40;4.10;;;;;;;;;;5027291;28;20446;-80
2021/09/24 12:39:11;;;;;;;5.40;4.30;;;;;;;;;;5030678;28;20462;-81
2021/09/24 12:41:39;;;;;;;5.90;4.50;;;;;;;;;;5031174;28;20453;-80
2021/09/24 12:44:06;;;;;;;4.10;3.70;;;;;;;;;;5031625;28;20437;-78
2021/09/24 12:46:41;;;;;;;5.30;4.13;;;;;;;;;;5037920;28;20495;-83
2021/09/24 12:49:08;;;;;;;6.27;4.10;;;;;;;;;;5053355;28;20467;-80
2021/09/24 12:51:36;;;;;;;4.97;3.50;;;;;;;;;;5052861;28;20441;-80
2021/09/24 12:54:04;;;;;;;5.43;3.80;;;;;;;;;;5053308;28;20444;-80
2021/09/24 12:56:31;;;;;;;5.43;3.47;;;;;;;;;;5031401;28;20441;-81
2021/09/24 12:58:59;;;;;;;3.23;2.80;;;;;;;;;;5009469;28;20431;-80
2021/09/24 13:01:26;;;;;;;4.20;2.97;;;;;;;;;;5030298;28;20443;-80
2021/09/24 13:03:55;;;;;;;3.83;2.83;;;;;;;;;;5030729;28;20442;-79
2021/09/24 13:06:24;;;;;;;2.77;2.43;;;;;;;;;;5030922;28;20507;-90
2021/09/24 13:08:52;;;;;;;3.50;2.70;;;;;;;;;;5017799;28;20469;-83
2021/09/24 13:11:22;;;;;;;4.37;2.37;;;;;;;;;;5015609;28;20446;-80
2021/09/24 13:13:49;;;;;;;5.00;3.33;;;;;;;;;;5033050;28;20845;-76
2021/09/24 13:16:16;;;;;;;4.53;3.50;;;;;;;;;;5016116;28;20843;-80
2021/09/24 13:18:43;;;;;;;5.50;3.30;;;;;;;;;;5028006;28;20804;-81
2021/09/24 13:21:12;;;;;;;4.40;3.33;;;;;;;;;;5046973;28;20962;-79
2021/09/24 13:23:40;;;;;;;3.93;3.00;;;;;;;;;;5052822;28;20433;-80
2021/09/24 13:26:07;;;;;;;3.50;2.57;;;;;;;;;;5055079;28;20504;-80
2021/09/24 13:28:34;;;;;;;3.70;3.10;;;;;;;;;;5056496;28;20437;-81
2021/09/24 13:31:01;;;;;;;3.87;2.73;;;;;;;;;;5055739;28;20464;-82
2021/09/24 13:33:29;;;;;;;3.60;2.53;;;;;;;;;;5057361;28;20449;-80
2021/09/24 13:35:56;;;;;;;5.43;2.67;;;;;;;;;;5057195;28;20531;-80
2021/09/24 13:38:24;;;;;;;2.63;2.00;;;;;;;;;;5052402;28;20473;-78
2021/09/24 13:40:52;;;;;;;3.37;2.80;;;;;;;;;;5049762;28;20453;-84
2021/09/24 13:43:19;;;;;;;3.00;2.70;;;;;;;;;;5053072;28;20440;-78
2021/09/24 13:45:46;;;;;;;7.20;3.23;;;;;;;;;;5069571;28;20456;-80
2021/09/24 13:48:13;;;;;;;4.00;2.60;;;;;;;;;;5074775;28;20794;-81
2021/09/24 13:50:40;;;;;;;3.90;2.43;;;;;;;;;;5061190;28;20469;-77
2021/09/24 13:53:08;;;;;;;3.30;2.60;;;;;;;;;;5054763;28;20465;-76
2021/09/24 13:55:37;;;;;;;4.47;2.90;;;;;;;;;;5042034;28;20438;-78
2021/09/24 13:58:05;;;;;;;4.37;3.00;;;;;;;;;;5047620;28;20444;-77
2021/09/24 14:00:32;;;;;;;5.57;2.50;;;;;;;;;;5027365;28;20458;-77
2021/09/24 14:02:59;;;;;;;3.57;2.43;;;;;;;;;;5049820;28;20531;-78
2021/09/24 14:05:26;;;;;;;3.47;2.80;;;;;;;;;;5033837;28;20476;-76
2021/09/24 14:07:53;;;;;;;7.30;2.63;;;;;;;;;;5033445;28;20482;-77
2021/09/24 14:10:21;;;;;;;5.17;2.77;;;;;;;;;;5046574;28;20469;-78
2021/09/24 14:12:53;;;;;;;3.13;2.23;;;;;;;;;;5037367;28;20460;-80
2021/09/24 14:15:20;;;;;;;4.73;3.10;;;;;;;;;;5055497;28;20468;-77
2021/09/24 14:17:48;;;;;;;3.63;2.90;;;;;;;;;;5038275;28;20837;-78
2021/09/24 14:20:15;;;;;;;3.80;2.80;;;;;;;;;;5049542;28;20461;-77
2021/09/24 14:22:43;;;;;;;3.83;2.67;;;;;;;;;;5049296;28;20474;-76
2021/09/24 14:25:11;;;;;;;3.10;2.77;;;;;;;;;;5052604;28;20453;-77
2021/09/24 14:27:38;;;;;;;3.70;3.03;;;;;;;;;;5039512;28;20491;-77
2021/09/24 14:30:08;;;;;;;4.03;2.60;;;;;;;;;;5043750;28;20485;-78
2021/09/24 14:32:36;;;;;;;3.53;2.87;;;;;;;;;;5038835;28;20806;-77
2021/09/24 14:35:03;;;;;;;3.87;3.47;;;;;;;;;;5055562;28;20437;-78
2021/09/24 14:37:30;;;;;;;4.93;3.07;;;;;;;;;;5054668;28;20460;-76
2021/09/24 14:39:58;;;;;;;5.00;3.60;;;;;;;;;;5051674;28;20831;-77